createdAt,value
2022-08-26T00:02:12.955Z,15.35
2022-08-26T00:04:41.512Z,22.58
2022-08-26T00:07:43.366Z,14.35
2022-08-26T00:10:12.428Z,15.43
2022-08-26T00:12:46.883Z,17.27
2022-08-26T00:15:17.810Z,16.45
2022-08-26T00:17:47.767Z,17.35
2022-08-26T00:20:28.927Z,12.43
2022-08-26T00:22:57.063Z,14.10
2022-08-26T00:25:25.757Z,14.68
2022-08-26T00:27:53.968Z,15.07
2022-08-26T00:30:27.415Z,13.77
2022-08-26T00:32:56.400Z,12.77
2022-08-26T00:35:26.133Z,21.98
2022-08-26T00:38:01.952Z,16.60
2022-08-26T00:40:37.965Z,10.82
2022-08-26T00:43:07.558Z,13.18
2022-08-26T00:45:47.058Z,10.55
2022-08-26T00:48:18.920Z,11.98
2022-08-26T00:51:15.070Z,15.75
2022-08-26T00:53:57.085Z,25.77
2022-08-26T00:56:53.771Z,17.90
2022-08-26T00:59:22.738Z,17.95
2022-08-26T01:01:54.442Z,18.55
2022-08-26T01:04:23.885Z,18.15
2022-08-26T01:06:55.057Z,16.27
2022-08-26T01:09:24.720Z,13.82
2022-08-26T01:12:03.189Z,20.77
2022-08-26T01:14:42.204Z,18.45
2022-08-26T01:17:15.391Z,22.58
2022-08-26T01:20:18.761Z,28.77
2022-08-26T01:23:08.709Z,16.02
2022-08-26T01:25:47.369Z,15.35
2022-08-26T01:28:24.390Z,17.13
2022-08-26T01:30:54.708Z,22.13
2022-08-26T01:33:30.217Z,16.63
2022-08-26T01:36:08.628Z,20.73
2022-08-26T01:38:36.835Z,19.58
2022-08-26T01:41:39.852Z,19.52
2022-08-26T01:44:10.442Z,22.25
2022-08-26T01:46:39.276Z,18.52
2022-08-26T01:49:43.351Z,23.10
2022-08-26T01:52:18.376Z,25.05
2022-08-26T01:54:51.865Z,17.10
2022-08-26T01:57:21.375Z,22.40
2022-08-26T01:59:51.292Z,18.95
2022-08-26T02:07:26.932Z,19.90
2022-08-26T02:09:57.115Z,19.55
2022-08-26T02:12:27.224Z,20.05
2022-08-26T02:15:11.320Z,26.48
2022-08-26T02:17:52.876Z,16.30
2022-08-26T02:20:27.815Z,20.67
2022-08-26T02:25:52.088Z,24.52
2022-08-26T02:28:20.886Z,23.27
2022-08-26T02:30:55.749Z,21.25
2022-08-26T02:33:31.489Z,24.70
2022-08-26T02:36:06.077Z,25.77
2022-08-26T02:38:43.132Z,25.65
2022-08-26T02:42:48.500Z,22.45
2022-08-26T02:45:23.289Z,18.90
2022-08-26T02:47:53.726Z,22.52
2022-08-26T02:50:26.940Z,20.95
2022-08-26T02:52:55.535Z,21.67
2022-08-26T02:55:28.363Z,23.42
2022-08-26T02:57:57.110Z,16.77
2022-08-26T03:00:26.487Z,18.13
2022-08-26T03:02:55.407Z,25.58
2022-08-26T03:05:29.371Z,20.73
2022-08-26T03:07:58.054Z,20.98
2022-08-26T03:10:31.804Z,18.15
2022-08-26T03:13:05.117Z,13.48
2022-08-26T03:15:33.529Z,16.42
2022-08-26T03:18:03.032Z,18.15
2022-08-26T03:20:32.850Z,15.57
2022-08-26T03:23:01.133Z,20.52
2022-08-26T03:25:36.466Z,21.08
2022-08-26T03:28:06.797Z,22.60
2022-08-26T03:30:45.019Z,18.33
2022-08-26T03:33:15.307Z,16.15
2022-08-26T03:35:45.641Z,20.52
2022-08-26T03:38:15.849Z,19.10
2022-08-26T03:40:44.431Z,21.35
2022-08-26T03:43:17.322Z,19.65
2022-08-26T03:45:46.938Z,24.23
2022-08-26T03:48:16.521Z,20.88
2022-08-26T03:50:52.739Z,22.02
2022-08-26T03:55:09.003Z,28.52
2022-08-26T03:57:37.795Z,20.42
2022-08-26T04:00:12.182Z,23.92
2022-08-26T04:02:53.252Z,19.58
2022-08-26T04:10:53.194Z,22.27
2022-08-26T04:13:25.863Z,19.35
2022-08-26T04:15:56.325Z,16.92
2022-08-26T04:18:37.296Z,23.48
2022-08-26T04:21:09.585Z,28.23
2022-08-26T04:23:46.900Z,26.02
2022-08-26T04:31:15.549Z,20.88
2022-08-26T04:33:50.228Z,20.38
2022-08-26T04:36:20.175Z,20.00
2022-08-26T04:39:02.524Z,19.25
2022-08-26T04:41:31.993Z,21.80
2022-08-26T04:44:01.917Z,31.60
2022-08-26T04:46:32.453Z,24.13
2022-08-26T04:49:01.221Z,21.52
2022-08-26T04:51:34.629Z,24.25
2022-08-26T04:54:03.852Z,27.73
2022-08-26T04:56:37.630Z,28.08
2022-08-26T04:59:16.660Z,30.83
2022-08-26T05:01:51.164Z,24.10
2022-08-26T05:04:21.283Z,26.92
2022-08-26T05:06:54.837Z,33.10
2022-08-26T05:09:33.141Z,28.10
2022-08-26T05:12:07.319Z,28.15
2022-08-26T05:14:44.380Z,27.13
2022-08-26T05:17:20.200Z,24.92
2022-08-26T05:19:56.051Z,24.80
2022-08-26T05:22:27.951Z,32.40
2022-08-26T05:24:56.733Z,41.22
2022-08-26T05:32:08.162Z,21.92
2022-08-26T05:34:40.109Z,19.52
2022-08-26T05:37:14.447Z,18.80
2022-08-26T05:40:17.711Z,24.77
2022-08-26T05:42:54.086Z,25.02
2022-08-26T05:45:25.737Z,22.20
2022-08-26T05:47:55.484Z,22.55
2022-08-26T05:50:29.521Z,20.83
2022-08-26T05:53:05.796Z,27.48
2022-08-26T06:04:22.497Z,16.80
2022-08-26T06:07:03.021Z,19.88
2022-08-26T06:09:41.281Z,25.83
2022-08-26T06:13:03.300Z,22.48
2022-08-26T06:15:49.007Z,22.30
2022-08-26T06:18:26.179Z,28.77
2022-08-26T06:20:58.915Z,23.92
2022-08-26T06:23:50.949Z,23.60
2022-08-26T06:26:24.624Z,21.95
2022-08-26T06:28:55.625Z,25.83
2022-08-26T06:31:25.500Z,20.63
2022-08-26T06:33:55.498Z,21.23
2022-08-26T06:36:27.177Z,25.48
2022-08-26T06:38:57.015Z,16.45
2022-08-26T06:41:26.710Z,19.50
2022-08-26T06:43:58.998Z,22.23
2022-08-26T06:46:40.526Z,20.17
2022-08-26T06:49:09.983Z,22.08
2022-08-26T06:51:40.500Z,21.17
2022-08-26T06:54:11.349Z,18.25
2022-08-26T06:56:43.411Z,26.70
2022-08-26T06:59:21.885Z,19.88
2022-08-26T07:01:56.698Z,21.90
2022-08-26T07:04:27.914Z,28.17
2022-08-26T07:06:56.690Z,32.47
2022-08-26T07:09:30.542Z,19.00
2022-08-26T07:11:59.541Z,26.33
2022-08-26T07:14:28.168Z,17.98
2022-08-26T07:16:57.183Z,29.88
2022-08-26T07:19:29.950Z,29.38
2022-08-26T07:24:42.516Z,22.02
2022-08-26T07:27:14.885Z,22.73
2022-08-26T07:29:49.678Z,22.58
2022-08-26T07:32:54.985Z,26.30
2022-08-26T07:35:35.595Z,26.60
2022-08-26T07:38:13.417Z,28.67
2022-08-26T07:40:41.502Z,23.83
2022-08-26T07:43:10.216Z,17.83
2022-08-26T07:45:38.662Z,25.15
2022-08-26T07:48:07.957Z,27.17
2022-08-26T07:50:49.375Z,22.02
2022-08-26T07:53:20.530Z,16.13
2022-08-26T07:55:50.144Z,26.77
2022-08-26T07:58:27.335Z,27.73
2022-08-26T08:00:57.434Z,19.85
2022-08-26T08:03:27.856Z,19.17
2022-08-26T08:06:02.103Z,27.42
2022-08-26T08:08:32.229Z,26.67
2022-08-26T08:11:00.538Z,19.65
2022-08-26T08:13:34.119Z,19.83
2022-08-26T08:16:02.802Z,35.60
2022-08-26T08:18:31.594Z,20.85
2022-08-26T08:21:21.216Z,24.50
2022-08-26T08:23:54.286Z,20.13
2022-08-26T08:26:35.364Z,26.52
2022-08-26T08:29:05.255Z,24.30
2022-08-26T08:31:57.110Z,18.55
2022-08-26T08:34:35.003Z,24.60
2022-08-26T08:37:17.044Z,20.33
2022-08-26T08:39:46.554Z,21.77
2022-08-26T08:42:31.087Z,30.90
2022-08-26T08:45:35.886Z,26.23
2022-08-26T08:48:16.714Z,18.55
2022-08-26T08:50:54.633Z,33.65
2022-08-26T08:53:41.979Z,30.15
2022-08-26T08:56:25.119Z,22.30
2022-08-26T08:59:31.558Z,28.23
2022-08-26T09:02:17.780Z,23.30
2022-08-26T09:04:55.577Z,29.70
2022-08-26T09:07:39.221Z,22.55
2022-08-26T09:10:30.083Z,35.92
2022-08-26T09:13:00.446Z,35.72
2022-08-26T09:15:42.869Z,26.40
2022-08-26T09:18:27.759Z,24.45
2022-08-26T09:21:00.835Z,26.92
2022-08-26T09:23:29.224Z,23.08
2022-08-26T09:26:03.588Z,24.13
2022-08-26T09:28:33.316Z,20.50
2022-08-26T09:31:36.699Z,16.40
2022-08-26T09:34:17.562Z,29.20
2022-08-26T09:36:51.408Z,22.08
2022-08-26T09:39:28.661Z,28.40
2022-08-26T09:42:11.691Z,25.23
2022-08-26T09:45:01.073Z,18.58
2022-08-26T09:47:53.274Z,26.15
2022-08-26T09:50:36.340Z,20.15
2022-08-26T09:53:21.063Z,17.13
2022-08-26T09:56:30.165Z,23.40
2022-08-26T09:58:59.627Z,23.42
2022-08-26T10:01:43.129Z,27.83
2022-08-26T10:04:59.554Z,14.10
2022-08-26T10:07:48.244Z,17.13
2022-08-26T10:10:33.579Z,16.83
2022-08-26T10:17:51.169Z,17.55
2022-08-26T10:20:27.561Z,25.15
2022-08-26T10:23:14.066Z,24.42
2022-08-26T10:26:00.650Z,19.67
2022-08-26T10:28:58.721Z,20.67
2022-08-26T10:31:51.738Z,29.88
2022-08-26T10:34:21.130Z,23.63
2022-08-26T10:37:16.193Z,19.60
2022-08-26T10:39:58.672Z,19.48
2022-08-26T10:42:35.486Z,21.85
2022-08-26T10:45:15.718Z,17.48
2022-08-26T10:48:01.084Z,23.15
2022-08-26T10:50:40.177Z,26.27
2022-08-26T10:53:25.377Z,14.50
2022-08-26T10:56:36.124Z,19.95
2022-08-26T10:59:20.518Z,17.58
2022-08-26T11:02:28.021Z,36.78
2022-08-26T11:05:01.068Z,23.00
2022-08-26T11:07:42.281Z,18.93
2022-08-26T11:10:16.730Z,31.73
2022-08-26T11:15:53.741Z,25.73
2022-08-26T11:18:43.510Z,35.65
2022-08-26T11:21:43.995Z,19.40
2022-08-26T11:24:40.915Z,33.00
2022-08-26T11:27:37.659Z,23.58
2022-08-26T11:30:09.141Z,29.02
2022-08-26T11:32:54.317Z,27.27
2022-08-26T11:35:24.370Z,23.88
2022-08-26T11:37:58.350Z,19.92
2022-08-26T11:40:38.435Z,23.30
2022-08-26T11:43:12.899Z,26.48
2022-08-26T11:46:00.269Z,27.00
2022-08-26T11:48:50.559Z,23.95
2022-08-26T11:51:24.694Z,20.60
2022-08-26T11:56:37.095Z,30.17
2022-08-26T11:59:10.453Z,25.90
2022-08-26T12:01:43.366Z,21.02
2022-08-26T12:04:41.023Z,21.40
2022-08-26T12:07:18.484Z,21.70
2022-08-26T12:10:00.724Z,19.55
2022-08-26T12:12:40.378Z,26.70
2022-08-26T12:15:20.368Z,22.67
2022-08-26T12:18:00.651Z,21.02
2022-08-26T12:20:51.421Z,22.50
2022-08-26T12:23:26.967Z,18.42
2022-08-26T12:26:25.037Z,17.77
2022-08-26T12:29:12.854Z,16.60
2022-08-26T12:32:15.624Z,17.30
2022-08-26T12:34:49.130Z,17.17
2022-08-26T12:37:21.675Z,20.90
2022-08-26T12:39:50.999Z,21.55
2022-08-26T12:42:40.550Z,15.38
2022-08-26T12:45:09.731Z,17.13
2022-08-26T12:47:44.320Z,17.13
2022-08-26T12:50:20.123Z,14.27
2022-08-26T12:52:58.032Z,20.80
2022-08-26T12:55:32.785Z,21.52
2022-08-26T12:58:16.346Z,13.75
2022-08-26T13:00:50.159Z,12.43
2022-08-26T13:03:54.677Z,17.73
2022-08-26T13:06:25.186Z,11.35
2022-08-26T13:09:01.037Z,17.20
2022-08-26T13:11:45.084Z,16.60
2022-08-26T13:16:53.868Z,19.67
2022-08-26T13:19:25.684Z,18.85
2022-08-26T13:22:02.003Z,17.85
2022-08-26T13:24:40.105Z,22.23
2022-08-26T13:27:16.279Z,19.20
2022-08-26T13:29:44.357Z,18.17
2022-08-26T13:32:14.205Z,15.68
2022-08-26T13:34:51.028Z,13.20
2022-08-26T13:37:29.300Z,14.88
2022-08-26T13:40:08.010Z,19.83
2022-08-26T13:42:37.413Z,14.55
2022-08-26T13:45:18.450Z,15.65
2022-08-26T13:47:46.418Z,10.48
2022-08-26T13:50:14.688Z,16.08
2022-08-26T13:52:46.826Z,15.10
2022-08-26T13:55:15.520Z,18.70
2022-08-26T13:57:44.070Z,17.63
2022-08-26T14:00:13.060Z,17.35
2022-08-26T14:02:41.717Z,18.65
2022-08-26T14:05:10.492Z,15.88
2022-08-26T14:07:40.978Z,15.90
2022-08-26T14:10:09.907Z,15.60
2022-08-26T14:12:39.909Z,16.50
2022-08-26T14:15:08.654Z,14.85
2022-08-26T14:17:36.736Z,22.35
2022-08-26T14:20:08.505Z,20.00
2022-08-26T14:22:43.746Z,15.50
2022-08-26T14:25:25.769Z,18.80
2022-08-26T14:27:56.945Z,18.58
2022-08-26T14:30:25.377Z,19.80
2022-08-26T14:32:56.173Z,21.52
2022-08-26T14:35:26.775Z,17.95
2022-08-26T14:37:55.566Z,21.02
2022-08-26T14:40:26.384Z,17.63
2022-08-26T14:42:54.891Z,15.98
2022-08-26T14:45:30.603Z,25.25
2022-08-26T14:47:59.847Z,16.85
2022-08-26T14:50:28.010Z,12.32
2022-08-26T14:53:16.494Z,14.27
2022-08-26T14:55:45.904Z,12.68
2022-08-26T14:58:17.174Z,15.80
2022-08-26T15:00:45.312Z,10.10
2022-08-26T15:05:48.313Z,15.75
2022-08-26T15:08:16.903Z,19.33
2022-08-26T15:10:46.352Z,23.98
2022-08-26T15:13:15.157Z,17.30
2022-08-26T15:15:44.646Z,15.52
2022-08-26T15:18:13.353Z,15.05
2022-08-26T15:20:41.636Z,15.18
2022-08-26T15:23:11.186Z,12.30
2022-08-26T15:25:39.445Z,11.50
2022-08-26T15:28:07.296Z,10.65
2022-08-26T15:30:35.550Z,15.18
2022-08-26T15:33:04.189Z,12.20
2022-08-26T15:35:35.620Z,16.80
2022-08-26T15:38:08.049Z,9.02
2022-08-26T15:40:37.946Z,22.45
2022-08-26T15:43:25.680Z,10.45
2022-08-26T15:45:57.469Z,15.80
2022-08-26T15:48:26.115Z,12.60
2022-08-26T15:51:01.592Z,7.03
2022-08-26T15:53:38.253Z,12.77
2022-08-26T15:56:10.089Z,9.55
2022-08-26T15:58:38.714Z,9.90
2022-08-26T16:01:14.163Z,7.55
2022-08-26T16:03:46.392Z,7.22
2022-08-26T16:06:16.993Z,9.25
2022-08-26T16:08:45.531Z,6.88
2022-08-26T16:11:14.899Z,5.60
2022-08-26T16:13:51.267Z,8.88
2022-08-26T16:16:19.739Z,9.13
2022-08-26T16:18:51.372Z,8.85
2022-08-26T16:21:24.824Z,22.50
2022-08-26T16:23:57.406Z,14.85
2022-08-26T16:26:29.777Z,9.02
2022-08-26T16:28:58.453Z,5.95
2022-08-26T16:31:38.479Z,6.53
2022-08-26T16:34:08.501Z,6.22
2022-08-26T16:36:40.433Z,12.27
2022-08-26T16:39:10.289Z,15.40
2022-08-26T16:41:38.687Z,10.95
2022-08-26T16:44:09.518Z,9.48
2022-08-26T16:46:39.768Z,10.25
2022-08-26T16:49:08.804Z,7.95
2022-08-26T16:51:38.519Z,11.18
2022-08-26T16:54:08.847Z,12.77
2022-08-26T16:56:44.647Z,10.68
2022-08-26T16:59:13.656Z,11.20
2022-08-26T17:01:41.793Z,11.02
2022-08-26T17:04:09.853Z,13.45
2022-08-26T17:06:38.437Z,11.90
2022-08-26T17:09:07.536Z,11.60
2022-08-26T17:11:35.761Z,10.98
2022-08-26T17:14:04.459Z,12.98
2022-08-26T17:16:33.999Z,9.43
2022-08-26T17:19:04.851Z,7.65
2022-08-26T17:21:36.466Z,11.23
2022-08-26T17:24:06.321Z,9.45
2022-08-26T17:26:35.211Z,10.48
2022-08-26T17:29:03.796Z,9.77
2022-08-26T17:31:33.391Z,13.85
2022-08-26T17:34:01.804Z,8.30
2022-08-26T17:36:30.822Z,9.00
2022-08-26T17:38:59.958Z,11.18
2022-08-26T17:41:28.835Z,8.60
2022-08-26T17:43:57.314Z,10.15
2022-08-26T17:46:26.186Z,8.73
2022-08-26T17:49:04.077Z,8.57
2022-08-26T17:51:32.477Z,12.07
2022-08-26T17:54:00.731Z,12.55
2022-08-26T17:56:38.006Z,8.75
2022-08-26T17:59:09.926Z,8.88
2022-08-26T18:01:39.019Z,12.73
2022-08-26T18:04:09.721Z,8.90
2022-08-26T18:06:39.401Z,7.45
2022-08-26T18:09:08.265Z,7.60
2022-08-26T18:11:36.929Z,10.00
2022-08-26T18:14:05.239Z,14.38
2022-08-26T18:16:38.312Z,15.52
2022-08-26T18:19:07.540Z,10.95
2022-08-26T18:21:36.568Z,10.10
2022-08-26T18:24:06.029Z,11.05
2022-08-26T18:26:38.612Z,10.00
2022-08-26T18:29:08.486Z,8.75
2022-08-26T18:31:38.889Z,14.55
2022-08-26T18:34:12.834Z,9.73
2022-08-26T18:36:41.734Z,9.63
2022-08-26T18:39:13.887Z,9.35
2022-08-26T18:41:45.492Z,8.27
2022-08-26T18:44:15.631Z,12.00
2022-08-26T18:46:44.994Z,11.02
2022-08-26T18:49:15.583Z,11.65
2022-08-26T18:51:44.440Z,17.40
2022-08-26T18:54:15.989Z,9.27
2022-08-26T18:56:46.052Z,10.15
2022-08-26T18:59:19.860Z,7.30
2022-08-26T19:01:59.063Z,11.02
2022-08-26T19:04:28.397Z,11.95
2022-08-26T19:06:56.936Z,11.20
2022-08-26T19:09:27.496Z,10.20
2022-08-26T19:14:25.979Z,7.18
2022-08-26T19:16:56.613Z,10.93
2022-08-26T19:19:26.741Z,9.45
2022-08-26T19:21:56.610Z,9.75
2022-08-26T19:24:28.169Z,7.38
2022-08-26T19:26:59.918Z,10.38
2022-08-26T19:29:41.517Z,9.95
2022-08-26T19:32:10.852Z,11.35
2022-08-26T19:34:39.963Z,9.15
2022-08-26T19:37:08.026Z,10.00
2022-08-26T19:39:36.395Z,11.32
2022-08-26T19:42:05.128Z,9.60
2022-08-26T19:44:53.515Z,14.52
2022-08-26T19:47:54.477Z,13.02
2022-08-26T19:51:01.690Z,10.82
2022-08-26T19:53:38.720Z,10.30
2022-08-26T19:56:12.120Z,7.80
2022-08-26T19:58:41.731Z,8.88
2022-08-26T20:01:10.707Z,11.25
2022-08-26T20:03:41.590Z,9.85
2022-08-26T20:06:12.291Z,10.23
2022-08-26T20:08:50.665Z,13.65
2022-08-26T20:11:21.353Z,11.77
2022-08-26T20:13:53.494Z,13.20
2022-08-26T20:16:22.134Z,13.90
2022-08-26T20:19:17.528Z,11.40
2022-08-26T20:21:47.769Z,10.07
2022-08-26T20:24:19.579Z,7.93
2022-08-26T20:26:49.612Z,13.20
2022-08-26T20:29:20.243Z,10.95
2022-08-26T20:31:49.588Z,9.43
2022-08-26T20:34:19.382Z,12.38
2022-08-26T20:36:49.898Z,11.02
2022-08-26T20:39:22.532Z,12.00
2022-08-26T20:41:52.453Z,14.80
2022-08-26T20:44:22.296Z,12.38
2022-08-26T20:46:51.667Z,14.48
2022-08-26T20:49:27.249Z,9.57
2022-08-26T20:51:56.661Z,12.55
2022-08-26T20:54:29.675Z,10.85
2022-08-26T20:56:59.261Z,14.52
2022-08-26T20:59:32.191Z,10.75
2022-08-26T21:02:00.941Z,13.00
2022-08-26T21:04:31.047Z,13.15
2022-08-26T21:07:01.026Z,12.25
2022-08-26T21:09:36.514Z,15.15
2022-08-26T21:12:07.224Z,11.55
2022-08-26T21:14:36.073Z,9.23
2022-08-26T21:17:04.902Z,11.38
2022-08-26T21:19:35.322Z,11.25
2022-08-26T21:22:04.190Z,12.45
2022-08-26T21:24:33.473Z,13.27
2022-08-26T21:27:01.987Z,14.45
2022-08-26T21:29:30.328Z,11.18
2022-08-26T21:31:58.847Z,12.13
2022-08-26T21:34:28.495Z,12.80
2022-08-26T21:36:58.018Z,13.07
2022-08-26T21:39:59.516Z,13.95
2022-08-26T21:42:34.285Z,16.77
2022-08-26T21:45:10.113Z,15.82
2022-08-26T21:47:40.009Z,17.27
2022-08-26T21:50:09.799Z,14.23
2022-08-26T21:52:39.023Z,14.77
2022-08-26T21:55:12.020Z,11.52
2022-08-26T21:57:41.175Z,11.05
2022-08-26T22:00:13.205Z,14.80
2022-08-26T22:02:41.492Z,14.68
2022-08-26T22:05:11.712Z,15.27
2022-08-26T22:07:50.353Z,13.63
2022-08-26T22:10:27.292Z,12.93
2022-08-26T22:12:58.768Z,12.45
2022-08-26T22:15:31.965Z,15.93
2022-08-26T22:18:09.598Z,13.55
2022-08-26T22:20:38.507Z,14.90
2022-08-26T22:23:07.769Z,14.68
2022-08-26T22:25:36.977Z,11.50
2022-08-26T22:28:07.136Z,13.20
2022-08-26T22:30:35.433Z,11.57
2022-08-26T22:33:06.178Z,12.93
2022-08-26T22:35:40.925Z,13.00
2022-08-26T22:38:09.463Z,12.82
2022-08-26T22:41:09.917Z,14.70
2022-08-26T22:43:38.704Z,14.70
2022-08-26T22:46:17.639Z,16.50
2022-08-26T22:48:45.889Z,16.92
2022-08-26T22:51:25.187Z,13.10
2022-08-26T22:53:57.355Z,12.55
2022-08-26T22:56:26.154Z,18.88
2022-08-26T22:58:54.976Z,15.15
2022-08-26T23:01:24.029Z,20.08
2022-08-26T23:04:25.351Z,19.92
2022-08-26T23:06:54.993Z,16.67
2022-08-26T23:09:24.716Z,16.80
2022-08-26T23:11:56.268Z,22.65
2022-08-26T23:14:33.012Z,21.73
2022-08-26T23:17:01.370Z,21.88
2022-08-26T23:19:29.660Z,22.10
2022-08-26T23:21:58.018Z,21.35
2022-08-26T23:24:26.215Z,21.83
2022-08-26T23:26:55.074Z,22.77
2022-08-26T23:29:23.976Z,22.73
2022-08-26T23:31:53.890Z,23.15
2022-08-26T23:34:47.115Z,19.65
2022-08-26T23:37:16.506Z,21.97
2022-08-26T23:39:48.898Z,18.02
2022-08-26T23:42:17.284Z,16.85
2022-08-26T23:44:45.609Z,16.10
2022-08-26T23:47:14.332Z,13.40
2022-08-26T23:49:43.150Z,19.90
2022-08-26T23:52:37.669Z,10.80
2022-08-26T23:55:06.827Z,9.85
2022-08-26T23:57:35.333Z,13.27
